Time;durP1;ratioP1;P1;durP2;ratioP2;P2;SDS_P1;SDS_P2;PMS_P1;PMS_P2;Temp;Humidity;BMP_temperature;BMP_pressure;BME280_temperature;BME280_humidity;BME280_pressure;Samples;Min_cycle;Max_cycle;Signal;HPM_P1;HPM_P2
2022/03/26 00:00:37;;;;;;;22.70;11.75;;;7.30;44.10;;;;;;5094802;28;20035;-21
2022/03/26 00:03:04;;;;;;;27.38;15.25;;;7.20;43.60;;;;;;5095444;28;20024;-20
2022/03/26 00:05:30;;;;;;;22.95;12.07;;;7.20;44.10;;;;;;5095159;28;20036;-21
2022/03/26 00:07:56;;;;;;;30.33;17.63;;;7.20;43.30;;;;;;5095344;28;20024;-21
2022/03/26 00:10:22;;;;;;;23.33;11.63;;;7.10;44.60;;;;;;5094836;28;20035;-21
2022/03/26 00:12:49;;;;;;;23.45;13.45;;;7.10;43.70;;;;;;5095111;28;20502;-21
2022/03/26 00:15:15;;;;;;;31.73;18.73;;;7.10;44.40;;;;;;5095359;28;20107;-21
2022/03/26 00:17:41;;;;;;;27.85;16.08;;;7.10;44.40;;;;;;5095218;28;20498;-21
2022/03/26 00:20:08;;;;;;;57.45;29.20;;;7.10;44.60;;;;;;5094979;28;20057;-21
2022/03/26 00:22:34;;;;;;;31.33;18.50;;;7.00;45.90;;;;;;5094669;28;20036;-20
2022/03/26 00:25:00;;;;;;;26.23;14.75;;;6.90;45.00;;;;;;5094931;28;20032;-21
2022/03/26 00:27:26;;;;;;;24.67;13.52;;;6.90;44.60;;;;;;5094831;28;20070;-20
2022/03/26 00:29:52;;;;;;;26.30;14.75;;;6.90;44.30;;;;;;5094765;28;20020;-21
2022/03/26 00:32:19;;;;;;;24.13;12.52;;;6.80;44.70;;;;;;5094350;28;20071;-21
2022/03/26 00:34:46;;;;;;;24.50;12.95;;;6.80;44.40;;;;;;5094710;28;20032;-20
2022/03/26 00:37:12;;;;;;;31.00;16.30;;;6.80;45.00;;;;;;5094590;28;20031;-20
2022/03/26 00:39:39;;;;;;;23.92;12.30;;;6.80;45.20;;;;;;5094425;28;20032;-20
2022/03/26 00:42:10;;;;;;;20.48;11.35;;;6.70;45.00;;;;;;5094419;28;20365;-20
2022/03/26 00:44:37;;;;;;;18.75;10.50;;;6.70;44.70;;;;;;5094656;28;20077;-21
2022/03/26 00:47:04;;;;;;;34.92;18.63;;;6.70;44.30;;;;;;5094695;28;20036;-21
2022/03/26 00:49:30;;;;;;;24.83;13.75;;;6.60;44.20;;;;;;5094930;28;20499;-20
2022/03/26 00:51:56;;;;;;;21.42;10.40;;;6.60;44.40;;;;;;5095179;28;20028;-21
2022/03/26 00:54:23;;;;;;;20.30;11.05;;;6.60;44.00;;;;;;5093967;28;20020;-21
2022/03/26 00:56:49;;;;;;;21.48;12.55;;;6.60;44.10;;;;;;5094256;28;20169;-21
2022/03/26 00:59:15;;;;;;;20.42;10.05;;;6.50;43.80;;;;;;5094166;28;20069;-20
2022/03/26 01:01:41;;;;;;;25.23;12.43;;;6.50;43.90;;;;;;5093817;28;20051;-21
2022/03/26 01:04:08;;;;;;;28.40;15.57;;;6.40;44.40;;;;;;5094988;28;20031;-21
2022/03/26 01:06:34;;;;;;;33.65;17.20;;;6.40;45.60;;;;;;5093859;28;20036;-21
2022/03/26 01:09:01;;;;;;;21.50;11.10;;;6.40;44.60;;;;;;5094001;28;20056;-21
2022/03/26 01:11:27;;;;;;;30.45;16.13;;;6.30;44.60;;;;;;5094278;28;20065;-20
2022/03/26 01:13:56;;;;;;;25.88;14.23;;;6.30;45.70;;;;;;5093955;28;20063;-21
2022/03/26 01:16:24;;;;;;;22.00;12.05;;;6.30;46.60;;;;;;5093991;28;20035;-21
2022/03/26 01:18:50;;;;;;;17.73;9.98;;;6.20;45.20;;;;;;5094099;28;20027;-21
2022/03/26 01:21:16;;;;;;;30.83;17.30;;;6.20;44.70;;;;;;5093724;28;20032;-21
2022/03/26 01:23:44;;;;;;;29.73;16.10;;;6.20;45.20;;;;;;5094023;28;20494;-21
2022/03/26 01:26:10;;;;;;;35.60;20.75;;;6.20;45.50;;;;;;5094032;28;20031;-21
2022/03/26 01:28:36;;;;;;;29.55;15.88;;;6.10;44.80;;;;;;5093836;28;20035;-21
2022/03/26 01:31:02;;;;;;;21.98;12.00;;;6.10;45.70;;;;;;5093759;28;20028;-21
2022/03/26 01:33:28;;;;;;;20.45;10.77;;;6.10;44.90;;;;;;5093754;28;20069;-20
2022/03/26 01:35:54;;;;;;;30.58;15.55;;;6.10;44.70;;;;;;5093545;28;20045;-20
2022/03/26 01:38:20;;;;;;;22.20;11.73;;;6.10;45.50;;;;;;5093321;28;20107;-21
2022/03/26 01:40:46;;;;;;;28.92;15.60;;;6.00;45.60;;;;;;5093732;28;20024;-21
2022/03/26 01:43:12;;;;;;;24.25;12.70;;;6.00;44.90;;;;;;5093989;28;20365;-21
2022/03/26 01:45:38;;;;;;;25.50;13.10;;;6.00;45.10;;;;;;5093432;28;20031;-21
2022/03/26 01:48:05;;;;;;;25.02;13.20;;;5.90;45.00;;;;;;5093681;28;20102;-21
2022/03/26 01:50:31;;;;;;;30.95;16.98;;;5.90;45.40;;;;;;5093505;28;20057;-21
2022/03/26 01:52:57;;;;;;;30.33;15.02;;;5.90;44.90;;;;;;5093341;28;20507;-21
2022/03/26 01:55:25;;;;;;;26.52;14.05;;;5.90;45.30;;;;;;5093175;28;20028;-21
2022/03/26 01:57:51;;;;;;;19.90;10.93;;;5.80;45.40;;;;;;5093501;28;20526;-21
2022/03/26 02:00:18;;;;;;;25.95;13.75;;;5.80;45.40;;;;;;5093381;28;20039;-21
2022/03/26 02:02:44;;;;;;;28.75;14.60;;;5.70;46.70;;;;;;5093015;28;20044;-21
2022/03/26 02:05:14;;;;;;;41.65;20.83;;;5.70;46.80;;;;;;5094055;28;20097;-21
2022/03/26 02:07:43;;;;;;;21.15;11.45;;;5.70;49.00;;;;;;5093245;28;20479;-21
2022/03/26 02:10:11;;;;;;;24.48;13.07;;;5.60;46.50;;;;;;5093340;28;20024;-21
2022/03/26 02:12:38;;;;;;;19.13;10.13;;;5.60;46.20;;;;;;5092906;28;20415;-21
2022/03/26 02:15:06;;;;;;;19.27;9.45;;;5.60;45.80;;;;;;5093445;28;20032;-21
2022/03/26 02:17:34;;;;;;;17.90;9.30;;;5.50;45.80;;;;;;5093050;28;20020;-21
2022/03/26 02:20:02;;;;;;;15.88;7.80;;;5.50;46.20;;;;;;5091846;28;20028;-21
2022/03/26 02:22:29;;;;;;;18.13;8.98;;;5.40;45.60;;;;;;5092718;28;20024;-21
2022/03/26 02:24:56;;;;;;;15.20;8.13;;;5.40;46.00;;;;;;5092986;28;20472;-21
2022/03/26 02:27:24;;;;;;;17.20;7.85;;;5.40;45.80;;;;;;5093327;28;20101;-21
2022/03/26 02:29:51;;;;;;;18.50;9.43;;;5.40;45.60;;;;;;5093301;28;20028;-21
2022/03/26 02:32:25;;;;;;;33.50;16.90;;;5.40;45.60;;;;;;5093066;28;20042;-21
2022/03/26 02:34:53;;;;;;;35.55;19.27;;;5.30;45.60;;;;;;5092861;28;20031;-21
2022/03/26 02:37:20;;;;;;;30.38;16.90;;;5.20;46.00;;;;;;5093235;28;20106;-21
2022/03/26 02:39:46;;;;;;;23.73;12.35;;;5.20;45.70;;;;;;5092788;28;20567;-21
2022/03/26 02:42:13;;;;;;;18.20;8.82;;;5.10;46.00;;;;;;5093110;28;20040;-21
2022/03/26 02:44:40;;;;;;;26.63;14.07;;;5.10;45.80;;;;;;5095176;28;20032;-21
2022/03/26 02:47:08;;;;;;;33.70;18.73;;;5.10;45.80;;;;;;5096764;28;20020;-21
2022/03/26 02:49:34;;;;;;;22.25;10.63;;;5.00;47.40;;;;;;5097152;28;20491;-21
2022/03/26 02:52:00;;;;;;;17.98;9.40;;;5.00;46.50;;;;;;5096753;28;20022;-21
2022/03/26 02:54:26;;;;;;;21.10;12.80;;;5.00;46.30;;;;;;5096396;28;20020;-21
2022/03/26 02:56:54;;;;;;;19.85;11.35;;;4.90;46.10;;;;;;5096842;28;20028;-21
2022/03/26 02:59:23;;;;;;;15.23;8.25;;;4.90;46.80;;;;;;5096525;28;20024;-21
2022/03/26 03:01:52;;;;;;;18.50;10.00;;;4.90;46.70;;;;;;5096325;28;20054;-21
2022/03/26 03:04:20;;;;;;;13.50;7.03;;;4.80;46.80;;;;;;5096359;28;20027;-21
2022/03/26 03:06:46;;;;;;;12.35;6.45;;;4.80;46.60;;;;;;5096708;28;20020;-21
2022/03/26 03:09:12;;;;;;;31.25;17.38;;;4.80;46.50;;;;;;5096459;28;20077;-20
2022/03/26 03:11:38;;;;;;;19.73;8.80;;;4.70;47.80;;;;;;5096590;28;20099;-21
2022/03/26 03:14:05;;;;;;;12.57;7.32;;;4.70;46.90;;;;;;5096389;28;20150;-21
2022/03/26 03:16:33;;;;;;;17.20;9.38;;;4.70;46.80;;;;;;5096101;28;20036;-22
2022/03/26 03:18:59;;;;;;;18.25;10.02;;;4.60;46.80;;;;;;5096526;28;20032;-21
2022/03/26 03:21:27;;;;;;;22.13;11.82;;;4.60;47.40;;;;;;5096055;28;20036;-21
2022/03/26 03:23:53;;;;;;;34.85;17.98;;;4.60;46.90;;;;;;5095940;28;20024;-21
2022/03/26 03:26:19;;;;;;;17.65;8.77;;;4.60;48.50;;;;;;5095918;28;20033;-21
2022/03/26 03:28:45;;;;;;;17.83;10.52;;;4.50;48.00;;;;;;5096291;28;20032;-21
2022/03/26 03:31:11;;;;;;;17.02;10.13;;;4.50;47.50;;;;;;5095942;28;20480;-21
2022/03/26 03:33:38;;;;;;;18.98;10.55;;;4.50;47.20;;;;;;5096201;28;20024;-21
2022/03/26 03:36:05;;;;;;;21.23;11.27;;;4.50;47.80;;;;;;5095805;28;20479;-21
2022/03/26 03:38:31;;;;;;;41.80;22.33;;;4.50;47.50;;;;;;5095783;28;20476;-21
2022/03/26 03:40:58;;;;;;;30.40;16.05;;;4.40;50.20;;;;;;5095568;28;20078;-20
2022/03/26 03:43:24;;;;;;;23.75;11.43;;;4.40;50.00;;;;;;5095707;28;20078;-21
2022/03/26 03:45:50;;;;;;;28.30;15.05;;;4.40;49.40;;;;;;5095686;28;20024;-21
2022/03/26 03:48:16;;;;;;;31.55;15.93;;;4.40;50.10;;;;;;5095595;28;20021;-21
2022/03/26 03:50:43;;;;;;;23.80;11.95;;;4.40;48.70;;;;;;5095880;28;20106;-21
2022/03/26 03:53:09;;;;;;;25.23;13.25;;;4.40;49.00;;;;;;5096332;28;20035;-21
2022/03/26 03:55:35;;;;;;;29.55;14.98;;;4.40;48.70;;;;;;5095346;28;20012;-21
2022/03/26 03:58:01;;;;;;;20.80;10.27;;;4.40;49.00;;;;;;5095768;28;20024;-21
2022/03/26 04:00:27;;;;;;;18.25;9.00;;;4.40;48.60;;;;;;5095269;28;20023;-21
2022/03/26 04:02:53;;;;;;;21.88;11.68;;;4.40;48.30;;;;;;5095242;28;20489;-21
2022/03/26 04:05:20;;;;;;;18.38;9.05;;;4.30;49.10;;;;;;5095226;28;20496;-21
2022/03/26 04:07:46;;;;;;;19.73;9.00;;;4.40;48.50;;;;;;5095583;28;20027;-21
2022/03/26 04:10:14;;;;;;;22.17;11.60;;;4.40;48.40;;;;;;5095408;28;20085;-21
2022/03/26 04:12:42;;;;;;;24.77;13.50;;;4.30;48.90;;;;;;5095367;28;20028;-21
2022/03/26 04:15:10;;;;;;;22.52;11.55;;;4.30;48.50;;;;;;5095429;28;20028;-21
2022/03/26 04:17:37;;;;;;;29.52;15.25;;;4.30;48.70;;;;;;5095383;28;20031;-21
2022/03/26 04:20:08;;;;;;;18.25;9.85;;;4.30;48.40;;;;;;5094995;28;20533;-21
2022/03/26 04:22:38;;;;;;;21.20;10.40;;;4.20;48.50;;;;;;5094678;28;20032;-21
2022/03/26 04:25:06;;;;;;;22.42;13.07;;;4.20;48.30;;;;;;5093585;28;20031;-21
2022/03/26 04:27:32;;;;;;;28.17;14.90;;;4.20;49.20;;;;;;5094743;28;20028;-21
2022/03/26 04:29:58;;;;;;;24.40;13.13;;;4.20;49.40;;;;;;5095017;28;20032;-21
2022/03/26 04:32:24;;;;;;;27.85;14.32;;;4.10;50.50;;;;;;5094635;28;20056;-21
2022/03/26 04:34:50;;;;;;;38.78;19.50;;;4.10;49.10;;;;;;5094746;28;20020;-21
2022/03/26 04:37:17;;;;;;;28.77;15.65;;;4.10;50.30;;;;;;5094918;28;20062;-21
2022/03/26 04:39:43;;;;;;;24.52;12.50;;;4.10;49.60;;;;;;5094805;28;20024;-21
2022/03/26 04:42:09;;;;;;;38.92;18.33;;;4.10;49.90;;;;;;5094621;28;20035;-21
2022/03/26 04:44:36;;;;;;;34.38;16.38;;;4.10;50.30;;;;;;5094585;28;20392;-21
2022/03/26 04:47:02;;;;;;;24.33;12.48;;;4.10;50.40;;;;;;5094833;28;20028;-21
2022/03/26 04:49:28;;;;;;;21.13;11.27;;;4.10;50.10;;;;;;5094751;28;20478;-20
2022/03/26 04:51:53;;;;;;;16.80;8.85;;;4.10;50.10;;;;;;5094351;28;20115;-21
2022/03/26 04:54:19;;;;;;;15.02;8.35;;;4.10;49.50;;;;;;5093996;28;20142;-20
2022/03/26 04:56:45;;;;;;;25.77;13.50;;;4.10;49.70;;;;;;5094609;28;20047;-21
2022/03/26 04:59:11;;;;;;;21.67;11.73;;;4.00;49.00;;;;;;5094230;28;20384;-21
2022/03/26 05:01:37;;;;;;;23.20;13.13;;;4.00;49.90;;;;;;5094095;28;20109;-21
2022/03/26 05:04:03;;;;;;;21.23;9.60;;;4.00;50.00;;;;;;5094461;28;20070;-21
2022/03/26 05:06:29;;;;;;;18.15;8.93;;;4.00;49.70;;;;;;5093520;28;20044;-21
2022/03/26 05:08:55;;;;;;;19.70;10.25;;;4.00;49.60;;;;;;5094003;28;20395;-21
2022/03/26 05:11:21;;;;;;;18.90;10.20;;;3.90;49.50;;;;;;5094029;28;20039;-21
2022/03/26 05:13:47;;;;;;;14.25;7.40;;;3.90;49.30;;;;;;5093986;28;20077;-21
2022/03/26 05:16:13;;;;;;;19.42;9.93;;;3.90;49.10;;;;;;5094048;28;20032;-22
2022/03/26 05:18:39;;;;;;;22.65;11.63;;;3.90;49.90;;;;;;5093914;28;20032;-21
2022/03/26 05:21:07;;;;;;;41.10;22.25;;;3.90;49.70;;;;;;5094140;28;20027;-21
2022/03/26 05:23:34;;;;;;;18.02;8.90;;;3.90;50.40;;;;;;5093755;28;20031;-21
2022/03/26 05:26:00;;;;;;;17.60;8.48;;;3.90;50.00;;;;;;5093643;28;20488;-21
2022/03/26 05:28:26;;;;;;;13.45;7.20;;;3.90;49.60;;;;;;5093815;28;20054;-21
2022/03/26 05:30:52;;;;;;;24.05;11.27;;;3.90;49.30;;;;;;5093688;28;20054;-21
2022/03/26 05:33:19;;;;;;;21.02;9.73;;;3.90;49.30;;;;;;5093854;28;20028;-21
2022/03/26 05:35:45;;;;;;;14.45;7.97;;;3.90;50.00;;;;;;5093635;28;20024;-21
2022/03/26 05:38:11;;;;;;;16.02;8.45;;;3.90;49.40;;;;;;5092360;28;20028;-21
2022/03/26 05:40:37;;;;;;;12.90;6.57;;;3.90;49.30;;;;;;5093310;28;20020;-21
2022/03/26 05:43:03;;;;;;;13.27;6.65;;;4.00;49.30;;;;;;5093467;28;20119;-21
2022/03/26 05:45:29;;;;;;;16.98;8.95;;;4.00;49.00;;;;;;5093418;28;20103;-21
2022/03/26 05:47:59;;;;;;;22.75;11.68;;;4.00;50.00;;;;;;5093733;28;20031;-21
2022/03/26 05:50:25;;;;;;;20.60;12.05;;;4.10;51.00;;;;;;5093469;28;20026;-21
2022/03/26 05:52:51;;;;;;;23.80;12.55;;;4.10;50.80;;;;;;5092093;28;20020;-21
2022/03/26 05:55:17;;;;;;;18.35;10.38;;;4.20;52.70;;;;;;5093247;28;20020;-21
2022/03/26 05:57:43;;;;;;;20.45;11.02;;;4.30;51.20;;;;;;5093616;28;20032;-21
2022/03/26 06:00:10;;;;;;;20.33;10.77;;;4.40;50.90;;;;;;5093863;28;20047;-21
2022/03/26 06:02:37;;;;;;;16.27;8.80;;;4.40;49.40;;;;;;5092762;28;20044;-20
2022/03/26 06:05:04;;;;;;;13.60;6.93;;;4.60;49.70;;;;;;5093406;28;20050;-21
2022/03/26 06:07:30;;;;;;;13.10;7.35;;;4.60;49.90;;;;;;5093520;28;20103;-21
2022/03/26 06:09:56;;;;;;;19.38;10.30;;;4.80;50.20;;;;;;5093073;28;20024;-21
2022/03/26 06:12:22;;;;;;;25.55;13.55;;;4.90;51.00;;;;;;5093028;28;20078;-21
2022/03/26 06:14:48;;;;;;;33.58;14.90;;;4.90;50.50;;;;;;5093172;28;20050;-21
2022/03/26 06:17:15;;;;;;;29.40;14.20;;;5.10;50.80;;;;;;5093085;28;20028;-21
2022/03/26 06:19:42;;;;;;;27.83;12.95;;;5.20;51.00;;;;;;5097609;28;20024;-21
2022/03/26 06:22:08;;;;;;;24.58;12.32;;;5.40;51.20;;;;;;5097485;28;20035;-21
2022/03/26 06:24:35;;;;;;;17.65;9.05;;;5.50;50.50;;;;;;5097151;28;20514;-21
2022/03/26 06:27:01;;;;;;;27.25;13.32;;;5.60;50.20;;;;;;5097104;28;20390;-21
2022/03/26 06:29:27;;;;;;;24.38;12.40;;;5.80;49.60;;;;;;5097155;28;20447;-21
2022/03/26 06:31:54;;;;;;;24.00;10.77;;;5.90;50.50;;;;;;5096210;28;20046;-21
2022/03/26 06:34:22;;;;;;;23.35;12.70;;;6.10;49.90;;;;;;5096805;28;20161;-21
2022/03/26 06:36:48;;;;;;;19.20;10.48;;;6.30;50.60;;;;;;5096919;28;20084;-21
2022/03/26 06:39:14;;;;;;;16.50;8.50;;;6.50;49.80;;;;;;5096764;28;20111;-21
2022/03/26 06:41:40;;;;;;;22.85;11.38;;;6.80;48.70;;;;;;5096807;28;20039;-21
2022/03/26 06:44:08;;;;;;;21.20;11.80;;;7.00;49.40;;;;;;5097044;28;20024;-20
2022/03/26 06:46:36;;;;;;;21.05;10.73;;;7.20;49.70;;;;;;5096836;28;20024;-21
2022/03/26 06:49:03;;;;;;;18.02;9.27;;;7.50;49.40;;;;;;5097058;28;20024;-21
2022/03/26 06:51:29;;;;;;;34.45;15.93;;;7.70;49.50;;;;;;5096685;28;20051;-21
2022/03/26 06:53:55;;;;;;;29.02;14.88;;;7.90;48.70;;;;;;5096117;28;20055;-20
2022/03/26 06:56:20;;;;;;;24.33;12.68;;;8.20;48.10;;;;;;5096820;28;20033;-21
2022/03/26 06:58:47;;;;;;;18.73;10.25;;;8.40;47.70;;;;;;5096578;28;20024;-20
2022/03/26 07:01:12;;;;;;;53.40;27.27;;;8.70;48.10;;;;;;5096702;28;20127;-21
2022/03/26 07:03:38;;;;;;;25.83;14.20;;;8.90;48.00;;;;;;5095485;28;20115;-20
2022/03/26 07:06:04;;;;;;;29.08;14.95;;;9.10;48.60;;;;;;5096719;28;20024;-20
2022/03/26 07:08:30;;;;;;;33.75;18.67;;;9.40;47.40;;;;;;5096270;28;20051;-20
2022/03/26 07:10:56;;;;;;;30.63;16.15;;;9.50;47.50;;;;;;5096419;28;20024;-21
2022/03/26 07:13:22;;;;;;;36.55;17.80;;;9.80;47.20;;;;;;5096300;28;20063;-20
2022/03/26 07:15:48;;;;;;;33.03;17.80;;;9.90;46.70;;;;;;5096241;28;20032;-20
2022/03/26 07:18:15;;;;;;;37.40;18.60;;;10.20;47.30;;;;;;5095986;28;20036;-21
2022/03/26 07:20:42;;;;;;;36.10;18.13;;;10.30;47.60;;;;;;5096113;28;20503;-20
2022/03/26 07:23:14;;;;;;;31.02;17.30;;;10.50;47.00;;;;;;5096045;28;20492;-21
2022/03/26 07:25:40;;;;;;;24.17;13.95;;;10.70;46.60;;;;;;5096168;28;20122;-20
2022/03/26 07:28:07;;;;;;;24.35;12.75;;;10.90;46.30;;;;;;5094830;28;20052;-21
2022/03/26 07:30:33;;;;;;;22.58;11.45;;;11.10;45.90;;;;;;5094980;28;20448;-21
2022/03/26 07:33:00;;;;;;;33.65;17.27;;;11.30;45.80;;;;;;5095892;28;20031;-20
2022/03/26 07:35:26;;;;;;;27.50;15.75;;;11.40;46.00;;;;;;5096180;28;20403;-20
2022/03/26 07:37:52;;;;;;;24.30;13.13;;;11.60;45.20;;;;;;5096134;28;20042;-20
2022/03/26 07:40:17;;;;;;;29.13;13.77;;;11.80;45.50;;;;;;5095583;28;20107;-20
2022/03/26 07:42:43;;;;;;;22.80;12.18;;;12.00;45.00;;;;;;5095926;28;20060;-20
2022/03/26 07:45:10;;;;;;;25.48;13.30;;;12.20;44.90;;;;;;5095680;28;20490;-20
2022/03/26 07:47:38;;;;;;;29.33;16.35;;;12.40;44.60;;;;;;5095648;28;20396;-20
2022/03/26 07:50:06;;;;;;;22.95;12.00;;;12.60;44.70;;;;;;5095958;28;20032;-20
2022/03/26 07:52:33;;;;;;;32.92;16.25;;;12.80;44.20;;;;;;5095329;28;20024;-20
2022/03/26 07:54:59;;;;;;;28.67;16.70;;;13.00;44.30;;;;;;5095442;28;20548;-20
2022/03/26 07:57:24;;;;;;;28.92;14.77;;;13.20;44.10;;;;;;5095428;28;20114;-20
2022/03/26 07:59:50;;;;;;;38.38;19.50;;;13.40;43.90;;;;;;5095370;28;20039;-20
2022/03/26 08:02:16;;;;;;;25.65;14.00;;;13.70;43.70;;;;;;5095152;28;20040;-21
2022/03/26 08:04:42;;;;;;;25.10;14.20;;;13.90;43.30;;;;;;5095199;28;20032;-20
2022/03/26 08:07:08;;;;;;;20.58;11.45;;;14.10;43.00;;;;;;5096079;28;20024;-20
2022/03/26 08:09:34;;;;;;;26.13;14.15;;;14.40;42.90;;;;;;5095457;28;20073;-20
2022/03/26 08:12:00;;;;;;;25.92;13.85;;;14.70;42.70;;;;;;5096010;28;20399;-20
2022/03/26 08:14:26;;;;;;;19.60;10.50;;;14.90;42.10;;;;;;5094958;28;20064;-20
2022/03/26 08:16:52;;;;;;;24.40;12.73;;;15.20;41.80;;;;;;5095059;28;20032;-20
2022/03/26 08:19:18;;;;;;;19.55;10.85;;;15.40;41.50;;;;;;5095226;28;20027;-20
2022/03/26 08:21:44;;;;;;;19.73;10.88;;;15.70;41.30;;;;;;5094851;28;20515;-20
2022/03/26 08:24:12;;;;;;;34.22;16.88;;;15.90;41.00;;;;;;5093566;28;20059;-20
2022/03/26 08:26:39;;;;;;;21.98;11.90;;;16.20;40.70;;;;;;5094809;28;20028;-20
2022/03/26 08:29:06;;;;;;;20.95;12.23;;;16.40;40.40;;;;;;5094836;28;20066;-20
2022/03/26 08:31:32;;;;;;;21.75;12.45;;;16.50;40.20;;;;;;5094798;28;20024;-20
2022/03/26 08:33:59;;;;;;;27.42;14.93;;;16.80;40.00;;;;;;5094742;28;20029;-20
2022/03/26 08:36:26;;;;;;;25.85;14.23;;;16.90;39.60;;;;;;5094507;28;20442;-20
2022/03/26 08:38:52;;;;;;;26.77;15.23;;;17.20;39.40;;;;;;5094623;28;20387;-20
2022/03/26 08:41:21;;;;;;;22.98;13.80;;;17.50;39.20;;;;;;5093696;28;20515;-20
2022/03/26 08:43:50;;;;;;;24.00;13.10;;;17.70;38.80;;;;;;5095364;28;20031;-20
2022/03/26 08:46:17;;;;;;;29.30;16.42;;;18.00;38.40;;;;;;5094632;28;20047;-20
2022/03/26 08:48:43;;;;;;;31.08;15.77;;;18.30;38.10;;;;;;5094704;28;20051;-19
2022/03/26 08:51:09;;;;;;;30.33;18.02;;;18.50;37.60;;;;;;5093446;28;20062;-20
2022/03/26 08:53:35;;;;;;;30.45;16.90;;;18.80;37.00;;;;;;5094693;28;20056;-20
2022/03/26 08:56:01;;;;;;;21.00;12.20;;;19.10;36.80;;;;;;5094217;28;20432;-20
2022/03/26 08:58:28;;;;;;;25.90;15.63;;;19.30;36.40;;;;;;5092891;28;20107;-20
2022/03/26 09:00:54;;;;;;;19.55;11.73;;;19.50;35.90;;;;;;5093982;28;20052;-20
2022/03/26 09:03:21;;;;;;;23.58;13.57;;;19.80;35.80;;;;;;5094180;28;20032;-20
2022/03/26 09:05:50;;;;;;;19.95;12.20;;;20.10;35.60;;;;;;5094472;28;20024;-20
2022/03/26 09:08:16;;;;;;;20.35;11.10;;;20.40;35.10;;;;;;5094224;28;20031;-20
2022/03/26 09:10:42;;;;;;;18.80;11.70;;;20.60;34.90;;;;;;5093951;28;20399;-20
2022/03/26 09:13:08;;;;;;;19.45;11.90;;;20.90;34.30;;;;;;5094378;28;20474;-19
2022/03/26 09:15:34;;;;;;;23.98;14.38;;;21.20;33.90;;;;;;5092757;28;20028;-20
2022/03/26 09:18:00;;;;;;;23.17;13.48;;;21.50;33.50;;;;;;5092736;28;20028;-20
2022/03/26 09:20:27;;;;;;;36.17;20.92;;;21.80;33.20;;;;;;5093732;28;20365;-20
2022/03/26 09:22:54;;;;;;;23.60;15.25;;;22.10;31.30;;;;;;5093694;28;20028;-20
2022/03/26 09:25:21;;;;;;;21.38;13.00;;;22.30;31.90;;;;;;5094001;28;20059;-20
2022/03/26 09:27:48;;;;;;;31.40;18.67;;;22.50;32.00;;;;;;5093769;28;20106;-20
2022/03/26 09:30:16;;;;;;;29.25;17.20;;;22.80;31.50;;;;;;5093813;28;20081;-21
2022/03/26 09:32:44;;;;;;;23.33;14.65;;;23.00;31.30;;;;;;5093702;28;20051;-20
2022/03/26 09:35:12;;;;;;;30.35;18.63;;;23.30;31.10;;;;;;5093646;28;20103;-20
2022/03/26 09:37:40;;;;;;;25.70;16.60;;;23.50;30.70;;;;;;5093768;28;20036;-20
2022/03/26 09:40:08;;;;;;;26.77;15.85;;;23.70;30.60;;;;;;5093533;28;20028;-20
2022/03/26 09:42:37;;;;;;;22.38;14.10;;;24.00;30.40;;;;;;5093196;28;20024;-20
2022/03/26 09:45:06;;;;;;;18.67;12.00;;;24.30;30.20;;;;;;5094070;28;20436;-20
2022/03/26 09:47:33;;;;;;;19.17;13.38;;;24.50;30.30;;;;;;5093426;28;20028;-20
2022/03/26 09:50:00;;;;;;;25.23;16.60;;;24.90;29.90;;;;;;5094034;28;20391;-20
2022/03/26 09:52:27;;;;;;;22.98;14.57;;;25.10;29.40;;;;;;5092869;28;20032;-20
2022/03/26 09:54:57;;;;;;;21.75;14.00;;;25.40;29.30;;;;;;5093566;28;20495;-20
2022/03/26 09:57:23;;;;;;;22.52;14.35;;;25.70;29.00;;;;;;5093651;28;20023;-20
2022/03/26 09:59:49;;;;;;;21.02;13.25;;;25.90;28.90;;;;;;5093416;28;20020;-20
2022/03/26 10:02:16;;;;;;;20.50;13.07;;;26.20;28.80;;;;;;5092913;28;20047;-21
2022/03/26 10:04:44;;;;;;;20.92;12.20;;;26.40;28.30;;;;;;5093201;28;20044;-20
2022/03/26 10:07:11;;;;;;;17.95;11.95;;;26.60;28.00;;;;;;5093477;28;20426;-20
2022/03/26 10:09:40;;;;;;;25.15;15.95;;;26.90;28.00;;;;;;5093434;28;20032;-20
2022/03/26 10:12:11;;;;;;;23.65;14.50;;;27.10;27.60;;;;;;5093456;28;20127;-20
2022/03/26 10:14:57;;;;;;;20.33;14.38;;;27.30;27.50;;;;;;5092962;28;20029;-20
2022/03/26 10:17:32;;;;;;;22.17;13.60;;;27.60;27.10;;;;;;5093486;28;20032;-20
2022/03/26 10:20:04;;;;;;;19.35;13.43;;;27.80;27.20;;;;;;5093413;28;20020;-19
2022/03/26 10:22:36;;;;;;;23.17;15.15;;;28.10;26.80;;;;;;5093186;28;20052;-20
2022/03/26 10:25:04;;;;;;;19.77;13.57;;;28.30;25.70;;;;;;5092911;28;20472;-19
2022/03/26 10:27:46;;;;;;;22.73;15.00;;;28.40;25.80;;;;;;5093275;28;20111;-19
2022/03/26 10:32:39;;;;;;;18.83;12.93;;;28.50;25.40;;;;;;5093664;28;20368;-20
2022/03/26 10:33:30;;;;;;;15.55;11.02;;;28.70;25.40;;;;;;5092957;28;20479;-20
2022/03/26 10:36:04;;;;;;;24.65;14.57;;;28.90;24.20;;;;;;5093339;28;20040;-20
2022/03/26 10:38:33;;;;;;;;;;;29.00;24.70;;;;;;5093138;28;20020;-20
2022/03/26 10:41:01;;;;;;;19.73;14.60;;;29.10;24.00;;;;;;5093136;28;19912;-19
2022/03/26 10:43:27;;;;;;;20.77;14.27;;;29.40;25.30;;;;;;5092802;28;20169;-20
2022/03/26 10:45:55;;;;;;;21.75;13.93;;;29.50;25.10;;;;;;5092882;28;20032;-20
2022/03/26 10:48:27;;;;;;;20.17;14.23;;;29.60;24.90;;;;;;5092976;28;20039;-20
2022/03/26 10:50:55;;;;;;;21.42;15.75;;;29.70;24.50;;;;;;5093163;28;20032;-20
2022/03/26 10:53:21;;;;;;;18.00;12.82;;;29.90;24.40;;;;;;5092816;28;20024;-20
2022/03/26 10:55:49;;;;;;;19.02;13.70;;;30.00;24.70;;;;;;5092994;28;20432;-20
2022/03/26 10:58:15;;;;;;;16.17;12.43;;;30.30;24.50;;;;;;5092803;28;20036;-20
2022/03/26 11:00:44;;;;;;;20.00;13.32;;;30.50;24.40;;;;;;5091326;28;20513;-20
2022/03/26 11:03:10;;;;;;;17.33;12.10;;;30.80;24.20;;;;;;5092979;28;20038;-19
2022/03/26 11:05:38;;;;;;;15.88;10.85;;;31.00;24.10;;;;;;5095737;28;20442;-19
2022/03/26 11:08:08;;;;;;;15.70;11.88;;;31.20;23.90;;;;;;5096396;28;20077;-19
2022/03/26 11:10:35;;;;;;;20.95;15.75;;;31.40;23.60;;;;;;5096468;28;20024;-20
2022/03/26 11:13:03;;;;;;;22.15;14.35;;;31.60;23.30;;;;;;5097036;28;20047;-19
2022/03/26 11:15:34;;;;;;;24.02;15.73;;;31.70;23.10;;;;;;5096621;28;20043;-20
2022/03/26 11:18:36;;;;;;;22.25;15.48;;;31.80;22.60;;;;;;5096587;28;20043;-20
2022/03/26 11:21:18;;;;;;;17.98;11.80;;;31.90;21.50;;;;;;5095217;28;20089;-19
2022/03/26 11:24:03;;;;;;;19.83;14.18;;;32.00;22.30;;;;;;5096207;28;20028;-19
2022/03/26 11:26:53;;;;;;;21.00;14.32;;;32.20;22.10;;;;;;5096200;28;20047;-20
2022/03/26 11:29:28;;;;;;;20.73;14.57;;;32.40;21.80;;;;;;5096047;28;20016;-20
2022/03/26 11:32:12;;;;;;;17.83;13.05;;;32.50;20.80;;;;;;5096269;28;20024;-20
2022/03/26 11:34:38;;;;;;;19.60;14.27;;;32.70;21.20;;;;;;5096296;28;20028;-20
2022/03/26 11:37:21;;;;;;;17.17;12.15;;;32.80;21.90;;;;;;5095876;28;20028;-19
2022/03/26 11:39:51;;;;;;;18.73;14.13;;;32.90;21.50;;;;;;5095783;28;20077;-20
2022/03/26 11:42:37;;;;;;;23.00;17.25;;;33.00;21.90;;;;;;5095809;28;20023;-19
2022/03/26 11:51:19;;;;;;;16.70;12.70;;;33.50;21.50;;;;;;5095973;28;20039;-20
2022/03/26 11:53:47;;;;;;;17.08;12.65;;;33.70;20.30;;;;;;5095938;28;20027;-20
2022/03/26 11:56:28;;;;;;;20.70;14.52;;;33.90;21.30;;;;;;5095157;28;20069;-21
2022/03/26 11:59:03;;;;;;;21.52;14.80;;;34.10;20.30;;;;;;5095452;28;20024;-20
2022/03/26 12:01:40;;;;;;;19.00;13.95;;;34.20;20.80;;;;;;5094997;28;20056;-19
2022/03/26 12:04:17;;;;;;;21.05;14.15;;;34.40;20.00;;;;;;5095408;28;20047;-19
2022/03/26 12:06:51;;;;;;;17.90;13.15;;;34.40;20.00;;;;;;5095629;28;20036;-19
2022/03/26 12:09:35;;;;;;;22.33;13.73;;;34.50;20.60;;;;;;5095637;28;20024;-20
2022/03/26 12:12:16;;;;;;;20.38;15.07;;;34.60;18.70;;;;;;5095469;28;20028;-20
2022/03/26 12:15:05;;;;;;;19.08;14.57;;;34.80;19.50;;;;;;5095176;28;20496;-20
2022/03/26 12:18:04;;;;;;;18.15;14.43;;;34.90;18.20;;;;;;5094871;28;20115;-20
2022/03/26 12:20:33;;;;;;;17.92;12.70;;;34.90;18.30;;;;;;5095308;28;20118;-20
2022/03/26 12:23:10;;;;;;;16.83;12.02;;;34.90;20.00;;;;;;5094823;28;20549;-20
2022/03/26 12:25:51;;;;;;;17.92;13.68;;;34.90;19.70;;;;;;5094813;28;20037;-20
2022/03/26 12:28:30;;;;;;;22.20;15.40;;;35.00;19.40;;;;;;5095047;28;20357;-19
2022/03/26 12:31:04;;;;;;;16.55;12.88;;;35.20;17.90;;;;;;5095186;28;20024;-20
2022/03/26 12:33:40;;;;;;;15.52;10.95;;;35.30;19.60;;;;;;5095091;28;20492;-20
2022/03/26 12:36:07;;;;;;;15.15;11.80;;;35.40;19.70;;;;;;5094816;28;20077;-20
2022/03/26 12:38:33;;;;;;;14.50;10.63;;;35.60;19.80;;;;;;5093326;28;20681;-20
2022/03/26 12:41:01;;;;;;;14.48;10.50;;;35.80;19.70;;;;;;5094821;28;20020;-20
2022/03/26 12:43:28;;;;;;;15.05;11.38;;;36.00;19.60;;;;;;5094527;28;20016;-20